Delaware Park, New Jersey
Current Conditions -  °F | °C
As of 7:51 PM on Saturday 22 Nov 2014 (Local Time) from KABE Reporting Station
Overcast Overcast  
Wind Chill: 36°   Ceiling: 6500
Heat Index: 41°   Visibility: 10mi
Dew Point: 18°   Wind: 8mph
Humidity: 40%   Direction: 220°SW
Pressure: 30.25"   Gusts: NA
Location:  40.7083°N, 75.1472°W
Report Text: KABE 230051Z 22007KT 10SM BKN065 OVC075 05/M08 A3025 RMK AO2 SLP247 T00501078
Loading
Personal Weather Stations






























Interactive Weather Map New forecast layout! Learn more

10-Day Weather Forecast

Advertisements
Track Severe Weather on mobile